sensor_id;sensor_type;location;lat;lon;timestamp;P1;durP1;ratioP1;P2;durP2;ratioP2
3847;SDS011;1939;48.720;9.166;2024-01-07T00:00:54;21.13;;;10.60;;
3847;SDS011;1939;48.720;9.166;2024-01-07T00:03:21;30.73;;;11.90;;
3847;SDS011;1939;48.720;9.166;2024-01-07T00:05:49;31.30;;;13.30;;
3847;SDS011;1939;48.720;9.166;2024-01-07T00:08:16;32.80;;;14.87;;
3847;SDS011;1939;48.720;9.166;2024-01-07T00:10:46;28.20;;;13.27;;
3847;SDS011;1939;48.720;9.166;2024-01-07T00:13:16;29.70;;;13.30;;
3847;SDS011;1939;48.720;9.166;2024-01-07T00:15:47;31.37;;;14.87;;
3847;SDS011;1939;48.720;9.166;2024-01-07T00:18:15;32.33;;;13.93;;
3847;SDS011;1939;48.720;9.166;2024-01-07T00:20:48;27.23;;;12.63;;
3847;SDS011;1939;48.720;9.166;2024-01-07T00:23:15;27.60;;;13.80;;
3847;SDS011;1939;48.720;9.166;2024-01-07T00:25:46;34.00;;;13.70;;
3847;SDS011;1939;48.720;9.166;2024-01-07T00:28:12;30.03;;;14.50;;
3847;SDS011;1939;48.720;9.166;2024-01-07T00:30:39;25.63;;;13.70;;
3847;SDS011;1939;48.720;9.166;2024-01-07T00:33:09;27.00;;;12.87;;
3847;SDS011;1939;48.720;9.166;2024-01-07T00:35:47;26.00;;;13.00;;
3847;SDS011;1939;48.720;9.166;2024-01-07T00:38:15;20.60;;;11.20;;
3847;SDS011;1939;48.720;9.166;2024-01-07T00:40:43;23.87;;;11.30;;
3847;SDS011;1939;48.720;9.166;2024-01-07T00:43:13;28.00;;;12.23;;
3847;SDS011;1939;48.720;9.166;2024-01-07T00:45:43;25.27;;;11.53;;
3847;SDS011;1939;48.720;9.166;2024-01-07T00:48:12;24.53;;;12.03;;
3847;SDS011;1939;48.720;9.166;2024-01-07T00:50:38;24.73;;;11.67;;
3847;SDS011;1939;48.720;9.166;2024-01-07T00:53:06;31.57;;;13.23;;
3847;SDS011;1939;48.720;9.166;2024-01-07T00:55:33;28.13;;;12.93;;
3847;SDS011;1939;48.720;9.166;2024-01-07T00:58:02;20.40;;;10.93;;
3847;SDS011;1939;48.720;9.166;2024-01-07T01:00:30;26.17;;;12.17;;
3847;SDS011;1939;48.720;9.166;2024-01-07T01:02:57;29.50;;;13.87;;
3847;SDS011;1939;48.720;9.166;2024-01-07T01:05:25;29.10;;;12.60;;
3847;SDS011;1939;48.720;9.166;2024-01-07T01:07:53;24.57;;;11.30;;
3847;SDS011;1939;48.720;9.166;2024-01-07T01:10:20;33.07;;;12.67;;
3847;SDS011;1939;48.720;9.166;2024-01-07T01:12:48;26.10;;;12.63;;
3847;SDS011;1939;48.720;9.166;2024-01-07T01:15:18;24.67;;;12.60;;
3847;SDS011;1939;48.720;9.166;2024-01-07T01:17:44;30.00;;;14.00;;
3847;SDS011;1939;48.720;9.166;2024-01-07T01:20:11;26.20;;;13.00;;
3847;SDS011;1939;48.720;9.166;2024-01-07T01:22:39;25.97;;;12.60;;
3847;SDS011;1939;48.720;9.166;2024-01-07T01:25:06;27.93;;;14.60;;
3847;SDS011;1939;48.720;9.166;2024-01-07T01:27:37;32.07;;;11.50;;
3847;SDS011;1939;48.720;9.166;2024-01-07T01:30:03;25.63;;;13.30;;
3847;SDS011;1939;48.720;9.166;2024-01-07T01:32:31;32.57;;;12.90;;
3847;SDS011;1939;48.720;9.166;2024-01-07T01:34:58;27.67;;;12.73;;
3847;SDS011;1939;48.720;9.166;2024-01-07T01:37:27;23.20;;;11.40;;
3847;SDS011;1939;48.720;9.166;2024-01-07T01:39:57;30.10;;;13.87;;
3847;SDS011;1939;48.720;9.166;2024-01-07T01:42:24;29.90;;;13.17;;
3847;SDS011;1939;48.720;9.166;2024-01-07T01:44:52;34.27;;;14.03;;
3847;SDS011;1939;48.720;9.166;2024-01-07T01:47:23;34.80;;;13.33;;
3847;SDS011;1939;48.720;9.166;2024-01-07T01:49:51;30.33;;;13.60;;
3847;SDS011;1939;48.720;9.166;2024-01-07T01:52:22;35.77;;;14.00;;
3847;SDS011;1939;48.720;9.166;2024-01-07T01:54:53;38.00;;;14.80;;
3847;SDS011;1939;48.720;9.166;2024-01-07T01:57:24;32.83;;;13.90;;
3847;SDS011;1939;48.720;9.166;2024-01-07T01:59:51;29.10;;;13.90;;
3847;SDS011;1939;48.720;9.166;2024-01-07T02:02:20;33.17;;;14.10;;
3847;SDS011;1939;48.720;9.166;2024-01-07T02:04:48;34.53;;;13.70;;
3847;SDS011;1939;48.720;9.166;2024-01-07T02:07:18;36.33;;;15.07;;
3847;SDS011;1939;48.720;9.166;2024-01-07T02:09:45;40.27;;;16.20;;
3847;SDS011;1939;48.720;9.166;2024-01-07T02:12:13;32.07;;;13.87;;
3847;SDS011;1939;48.720;9.166;2024-01-07T02:14:40;41.20;;;15.13;;
3847;SDS011;1939;48.720;9.166;2024-01-07T02:17:07;39.73;;;14.90;;
3847;SDS011;1939;48.720;9.166;2024-01-07T02:19:35;39.77;;;16.33;;
3847;SDS011;1939;48.720;9.166;2024-01-07T02:22:03;43.90;;;17.37;;
3847;SDS011;1939;48.720;9.166;2024-01-07T02:24:30;47.17;;;15.07;;
3847;SDS011;1939;48.720;9.166;2024-01-07T02:26:58;43.43;;;16.93;;
3847;SDS011;1939;48.720;9.166;2024-01-07T02:29:29;43.00;;;15.70;;
3847;SDS011;1939;48.720;9.166;2024-01-07T02:31:56;41.40;;;16.90;;
3847;SDS011;1939;48.720;9.166;2024-01-07T02:34:26;49.80;;;17.20;;
3847;SDS011;1939;48.720;9.166;2024-01-07T02:36:54;39.67;;;16.57;;
3847;SDS011;1939;48.720;9.166;2024-01-07T02:39:21;52.07;;;17.80;;
3847;SDS011;1939;48.720;9.166;2024-01-07T02:41:48;42.50;;;18.80;;
3847;SDS011;1939;48.720;9.166;2024-01-07T02:44:19;36.73;;;15.40;;
3847;SDS011;1939;48.720;9.166;2024-01-07T02:46:46;38.77;;;15.47;;
3847;SDS011;1939;48.720;9.166;2024-01-07T02:49:13;39.90;;;15.90;;
3847;SDS011;1939;48.720;9.166;2024-01-07T02:51:41;46.00;;;18.17;;
3847;SDS011;1939;48.720;9.166;2024-01-07T02:54:12;37.87;;;16.07;;
3847;SDS011;1939;48.720;9.166;2024-01-07T02:56:40;36.33;;;15.87;;
3847;SDS011;1939;48.720;9.166;2024-01-07T02:59:07;41.87;;;16.77;;
3847;SDS011;1939;48.720;9.166;2024-01-07T03:01:35;39.53;;;17.00;;
3847;SDS011;1939;48.720;9.166;2024-01-07T03:04:10;40.47;;;16.47;;
3847;SDS011;1939;48.720;9.166;2024-01-07T03:06:40;34.47;;;16.23;;
3847;SDS011;1939;48.720;9.166;2024-01-07T03:09:08;38.43;;;16.97;;
3847;SDS011;1939;48.720;9.166;2024-01-07T03:11:40;37.50;;;16.90;;
3847;SDS011;1939;48.720;9.166;2024-01-07T03:14:10;35.17;;;16.73;;
3847;SDS011;1939;48.720;9.166;2024-01-07T03:16:38;33.80;;;14.70;;
3847;SDS011;1939;48.720;9.166;2024-01-07T03:19:04;45.83;;;17.67;;
3847;SDS011;1939;48.720;9.166;2024-01-07T03:21:32;42.93;;;17.50;;
3847;SDS011;1939;48.720;9.166;2024-01-07T03:23:59;32.97;;;15.70;;
3847;SDS011;1939;48.720;9.166;2024-01-07T03:26:29;35.93;;;18.03;;
3847;SDS011;1939;48.720;9.166;2024-01-07T03:28:55;38.33;;;16.30;;
3847;SDS011;1939;48.720;9.166;2024-01-07T03:31:26;48.57;;;16.70;;
3847;SDS011;1939;48.720;9.166;2024-01-07T03:33:54;32.60;;;15.97;;
3847;SDS011;1939;48.720;9.166;2024-01-07T03:36:24;48.23;;;17.93;;
3847;SDS011;1939;48.720;9.166;2024-01-07T03:38:55;38.80;;;17.00;;
3847;SDS011;1939;48.720;9.166;2024-01-07T03:41:22;31.27;;;15.77;;
3847;SDS011;1939;48.720;9.166;2024-01-07T03:43:49;28.83;;;14.50;;
3847;SDS011;1939;48.720;9.166;2024-01-07T03:46:17;30.73;;;14.13;;
3847;SDS011;1939;48.720;9.166;2024-01-07T03:48:44;34.90;;;13.70;;
3847;SDS011;1939;48.720;9.166;2024-01-07T03:51:12;26.67;;;13.70;;
3847;SDS011;1939;48.720;9.166;2024-01-07T03:53:45;28.17;;;14.13;;
3847;SDS011;1939;48.720;9.166;2024-01-07T03:56:21;27.47;;;12.90;;
3847;SDS011;1939;48.720;9.166;2024-01-07T03:58:57;26.07;;;12.60;;
3847;SDS011;1939;48.720;9.166;2024-01-07T04:01:24;25.83;;;13.40;;
3847;SDS011;1939;48.720;9.166;2024-01-07T04:03:52;28.67;;;13.73;;
3847;SDS011;1939;48.720;9.166;2024-01-07T04:06:17;30.00;;;14.00;;
3847;SDS011;1939;48.720;9.166;2024-01-07T04:08:42;28.10;;;14.77;;
3847;SDS011;1939;48.720;9.166;2024-01-07T04:11:08;37.50;;;17.70;;
3847;SDS011;1939;48.720;9.166;2024-01-07T04:13:33;30.50;;;14.10;;
3847;SDS011;1939;48.720;9.166;2024-01-07T04:15:58;28.33;;;13.80;;
3847;SDS011;1939;48.720;9.166;2024-01-07T04:18:23;26.90;;;13.20;;
3847;SDS011;1939;48.720;9.166;2024-01-07T04:20:48;28.83;;;14.23;;
3847;SDS011;1939;48.720;9.166;2024-01-07T04:23:14;32.77;;;16.03;;
3847;SDS011;1939;48.720;9.166;2024-01-07T04:25:39;30.33;;;16.00;;
3847;SDS011;1939;48.720;9.166;2024-01-07T04:28:06;40.27;;;16.47;;
3847;SDS011;1939;48.720;9.166;2024-01-07T04:30:31;35.53;;;15.57;;
3847;SDS011;1939;48.720;9.166;2024-01-07T04:32:56;31.90;;;15.30;;
3847;SDS011;1939;48.720;9.166;2024-01-07T04:35:21;36.17;;;14.07;;
3847;SDS011;1939;48.720;9.166;2024-01-07T04:37:46;33.70;;;15.00;;
3847;SDS011;1939;48.720;9.166;2024-01-07T04:40:12;28.00;;;14.20;;
3847;SDS011;1939;48.720;9.166;2024-01-07T04:42:37;35.40;;;15.50;;
3847;SDS011;1939;48.720;9.166;2024-01-07T04:45:02;30.17;;;13.63;;
3847;SDS011;1939;48.720;9.166;2024-01-07T04:47:31;28.50;;;14.13;;
3847;SDS011;1939;48.720;9.166;2024-01-07T04:49:59;39.70;;;16.30;;
3847;SDS011;1939;48.720;9.166;2024-01-07T04:52:24;37.40;;;15.13;;
3847;SDS011;1939;48.720;9.166;2024-01-07T04:54:50;33.07;;;13.77;;
3847;SDS011;1939;48.720;9.166;2024-01-07T04:57:15;33.47;;;14.00;;
3847;SDS011;1939;48.720;9.166;2024-01-07T04:59:41;26.70;;;14.03;;
3847;SDS011;1939;48.720;9.166;2024-01-07T05:02:06;30.43;;;13.87;;
3847;SDS011;1939;48.720;9.166;2024-01-07T05:04:31;27.37;;;13.90;;
3847;SDS011;1939;48.720;9.166;2024-01-07T05:06:57;27.57;;;13.50;;
3847;SDS011;1939;48.720;9.166;2024-01-07T05:09:22;31.87;;;15.60;;
3847;SDS011;1939;48.720;9.166;2024-01-07T05:11:48;25.03;;;13.40;;
3847;SDS011;1939;48.720;9.166;2024-01-07T05:14:13;24.87;;;13.90;;
3847;SDS011;1939;48.720;9.166;2024-01-07T05:16:38;30.57;;;14.13;;
3847;SDS011;1939;48.720;9.166;2024-01-07T05:19:04;30.87;;;12.80;;
3847;SDS011;1939;48.720;9.166;2024-01-07T05:21:29;26.10;;;12.07;;
3847;SDS011;1939;48.720;9.166;2024-01-07T05:23:55;29.33;;;15.57;;
3847;SDS011;1939;48.720;9.166;2024-01-07T05:26:20;29.50;;;14.37;;
3847;SDS011;1939;48.720;9.166;2024-01-07T05:28:45;28.23;;;13.13;;
3847;SDS011;1939;48.720;9.166;2024-01-07T05:31:17;27.77;;;14.20;;
3847;SDS011;1939;48.720;9.166;2024-01-07T05:33:42;26.20;;;14.07;;
3847;SDS011;1939;48.720;9.166;2024-01-07T05:36:08;28.00;;;14.27;;
3847;SDS011;1939;48.720;9.166;2024-01-07T05:38:33;31.87;;;14.67;;
3847;SDS011;1939;48.720;9.166;2024-01-07T05:40:58;27.77;;;13.33;;
3847;SDS011;1939;48.720;9.166;2024-01-07T05:43:23;29.47;;;13.30;;
3847;SDS011;1939;48.720;9.166;2024-01-07T05:45:48;30.10;;;13.23;;
3847;SDS011;1939;48.720;9.166;2024-01-07T05:48:14;34.07;;;15.50;;
3847;SDS011;1939;48.720;9.166;2024-01-07T05:50:39;28.33;;;12.57;;
3847;SDS011;1939;48.720;9.166;2024-01-07T05:53:04;32.33;;;13.57;;
3847;SDS011;1939;48.720;9.166;2024-01-07T05:55:29;34.63;;;14.70;;
3847;SDS011;1939;48.720;9.166;2024-01-07T05:57:55;30.33;;;13.87;;
3847;SDS011;1939;48.720;9.166;2024-01-07T06:00:20;26.10;;;11.93;;
3847;SDS011;1939;48.720;9.166;2024-01-07T06:02:45;29.10;;;13.50;;
3847;SDS011;1939;48.720;9.166;2024-01-07T06:05:10;35.10;;;14.20;;
3847;SDS011;1939;48.720;9.166;2024-01-07T06:07:35;27.23;;;12.17;;
3847;SDS011;1939;48.720;9.166;2024-01-07T06:10:01;29.50;;;13.30;;
3847;SDS011;1939;48.720;9.166;2024-01-07T06:12:26;23.27;;;13.20;;
3847;SDS011;1939;48.720;9.166;2024-01-07T06:14:51;24.60;;;12.70;;
3847;SDS011;1939;48.720;9.166;2024-01-07T06:17:16;20.17;;;12.17;;
3847;SDS011;1939;48.720;9.166;2024-01-07T06:19:42;26.57;;;13.10;;
3847;SDS011;1939;48.720;9.166;2024-01-07T06:22:07;27.30;;;12.20;;
3847;SDS011;1939;48.720;9.166;2024-01-07T06:24:32;26.47;;;12.53;;
3847;SDS011;1939;48.720;9.166;2024-01-07T06:26:57;31.20;;;13.07;;
3847;SDS011;1939;48.720;9.166;2024-01-07T06:29:22;28.87;;;14.27;;
3847;SDS011;1939;48.720;9.166;2024-01-07T06:31:48;25.80;;;12.57;;
3847;SDS011;1939;48.720;9.166;2024-01-07T06:34:14;23.23;;;11.80;;
3847;SDS011;1939;48.720;9.166;2024-01-07T06:36:40;21.30;;;12.60;;
3847;SDS011;1939;48.720;9.166;2024-01-07T06:39:06;23.63;;;12.40;;
3847;SDS011;1939;48.720;9.166;2024-01-07T06:41:32;28.67;;;12.27;;
3847;SDS011;1939;48.720;9.166;2024-01-07T06:43:58;28.73;;;13.67;;
3847;SDS011;1939;48.720;9.166;2024-01-07T06:46:23;29.30;;;14.13;;
3847;SDS011;1939;48.720;9.166;2024-01-07T06:48:48;26.93;;;12.53;;
3847;SDS011;1939;48.720;9.166;2024-01-07T06:51:14;26.50;;;12.73;;
3847;SDS011;1939;48.720;9.166;2024-01-07T06:53:39;28.03;;;14.27;;
3847;SDS011;1939;48.720;9.166;2024-01-07T06:56:05;27.63;;;13.17;;
3847;SDS011;1939;48.720;9.166;2024-01-07T06:58:30;22.40;;;12.33;;
3847;SDS011;1939;48.720;9.166;2024-01-07T07:00:57;23.87;;;12.07;;
3847;SDS011;1939;48.720;9.166;2024-01-07T07:03:22;24.20;;;12.37;;
3847;SDS011;1939;48.720;9.166;2024-01-07T07:05:47;20.70;;;12.27;;
3847;SDS011;1939;48.720;9.166;2024-01-07T07:08:12;26.63;;;13.20;;
3847;SDS011;1939;48.720;9.166;2024-01-07T07:10:38;25.00;;;13.07;;
3847;SDS011;1939;48.720;9.166;2024-01-07T07:13:03;28.30;;;13.70;;
3847;SDS011;1939;48.720;9.166;2024-01-07T07:15:28;26.13;;;14.13;;
3847;SDS011;1939;48.720;9.166;2024-01-07T07:17:53;24.77;;;13.60;;
3847;SDS011;1939;48.720;9.166;2024-01-07T07:20:19;28.67;;;13.23;;
3847;SDS011;1939;48.720;9.166;2024-01-07T07:22:44;23.07;;;11.90;;
3847;SDS011;1939;48.720;9.166;2024-01-07T07:25:10;25.90;;;14.13;;
3847;SDS011;1939;48.720;9.166;2024-01-07T07:27:35;25.20;;;13.23;;
3847;SDS011;1939;48.720;9.166;2024-01-07T07:30:00;28.90;;;14.87;;
3847;SDS011;1939;48.720;9.166;2024-01-07T07:32:25;28.57;;;14.43;;
3847;SDS011;1939;48.720;9.166;2024-01-07T07:34:50;28.27;;;13.47;;
3847;SDS011;1939;48.720;9.166;2024-01-07T07:37:16;27.87;;;14.30;;
3847;SDS011;1939;48.720;9.166;2024-01-07T07:39:41;26.40;;;12.83;;
3847;SDS011;1939;48.720;9.166;2024-01-07T07:42:06;22.70;;;12.17;;
3847;SDS011;1939;48.720;9.166;2024-01-07T07:44:31;24.83;;;12.70;;
3847;SDS011;1939;48.720;9.166;2024-01-07T07:46:57;31.20;;;14.60;;
3847;SDS011;1939;48.720;9.166;2024-01-07T07:49:22;22.97;;;11.90;;
3847;SDS011;1939;48.720;9.166;2024-01-07T07:51:47;16.40;;;10.53;;
3847;SDS011;1939;48.720;9.166;2024-01-07T07:54:12;21.00;;;11.70;;
3847;SDS011;1939;48.720;9.166;2024-01-07T07:56:37;27.93;;;10.90;;
3847;SDS011;1939;48.720;9.166;2024-01-07T07:59:03;19.83;;;11.27;;
3847;SDS011;1939;48.720;9.166;2024-01-07T08:01:28;26.57;;;12.30;;
3847;SDS011;1939;48.720;9.166;2024-01-07T08:03:54;22.23;;;10.80;;
3847;SDS011;1939;48.720;9.166;2024-01-07T08:06:19;25.23;;;10.90;;
3847;SDS011;1939;48.720;9.166;2024-01-07T08:08:44;21.93;;;10.27;;
3847;SDS011;1939;48.720;9.166;2024-01-07T08:11:10;21.43;;;10.70;;
3847;SDS011;1939;48.720;9.166;2024-01-07T08:13:35;16.93;;;9.30;;
3847;SDS011;1939;48.720;9.166;2024-01-07T08:16:01;18.90;;;11.10;;
3847;SDS011;1939;48.720;9.166;2024-01-07T08:18:26;21.37;;;11.73;;
3847;SDS011;1939;48.720;9.166;2024-01-07T08:20:52;20.20;;;11.43;;
3847;SDS011;1939;48.720;9.166;2024-01-07T08:23:17;25.43;;;11.37;;
3847;SDS011;1939;48.720;9.166;2024-01-07T08:25:42;23.27;;;10.33;;
3847;SDS011;1939;48.720;9.166;2024-01-07T08:28:07;22.47;;;11.87;;
3847;SDS011;1939;48.720;9.166;2024-01-07T08:30:33;20.87;;;9.43;;
3847;SDS011;1939;48.720;9.166;2024-01-07T08:32:58;18.23;;;9.60;;
3847;SDS011;1939;48.720;9.166;2024-01-07T08:35:23;20.67;;;10.77;;
3847;SDS011;1939;48.720;9.166;2024-01-07T08:37:48;20.77;;;10.00;;
3847;SDS011;1939;48.720;9.166;2024-01-07T08:40:14;21.27;;;8.53;;
3847;SDS011;1939;48.720;9.166;2024-01-07T08:42:39;16.73;;;8.70;;
3847;SDS011;1939;48.720;9.166;2024-01-07T08:45:05;18.10;;;9.20;;
3847;SDS011;1939;48.720;9.166;2024-01-07T08:47:30;21.10;;;8.83;;
3847;SDS011;1939;48.720;9.166;2024-01-07T08:49:56;18.70;;;8.17;;
3847;SDS011;1939;48.720;9.166;2024-01-07T08:52:21;16.10;;;7.37;;
3847;SDS011;1939;48.720;9.166;2024-01-07T08:54:47;18.10;;;8.80;;
3847;SDS011;1939;48.720;9.166;2024-01-07T08:57:12;18.63;;;8.97;;
3847;SDS011;1939;48.720;9.166;2024-01-07T08:59:37;16.00;;;9.90;;
3847;SDS011;1939;48.720;9.166;2024-01-07T09:02:03;20.60;;;8.30;;
3847;SDS011;1939;48.720;9.166;2024-01-07T09:04:28;19.43;;;8.87;;
3847;SDS011;1939;48.720;9.166;2024-01-07T09:06:53;15.37;;;8.57;;
3847;SDS011;1939;48.720;9.166;2024-01-07T09:09:18;20.00;;;9.53;;
3847;SDS011;1939;48.720;9.166;2024-01-07T09:11:44;22.23;;;9.13;;
3847;SDS011;1939;48.720;9.166;2024-01-07T09:14:09;18.93;;;9.10;;
3847;SDS011;1939;48.720;9.166;2024-01-07T09:16:34;20.70;;;9.97;;
3847;SDS011;1939;48.720;9.166;2024-01-07T09:18:59;19.67;;;10.33;;
3847;SDS011;1939;48.720;9.166;2024-01-07T09:21:24;14.57;;;9.87;;
3847;SDS011;1939;48.720;9.166;2024-01-07T09:23:50;17.17;;;9.20;;
3847;SDS011;1939;48.720;9.166;2024-01-07T09:26:15;13.73;;;8.07;;
3847;SDS011;1939;48.720;9.166;2024-01-07T09:28:41;20.30;;;8.20;;
3847;SDS011;1939;48.720;9.166;2024-01-07T09:31:07;13.60;;;7.50;;
3847;SDS011;1939;48.720;9.166;2024-01-07T09:33:33;19.83;;;8.90;;
3847;SDS011;1939;48.720;9.166;2024-01-07T09:35:58;17.60;;;7.47;;
3847;SDS011;1939;48.720;9.166;2024-01-07T09:38:23;15.17;;;7.80;;
3847;SDS011;1939;48.720;9.166;2024-01-07T09:40:50;15.27;;;8.00;;
3847;SDS011;1939;48.720;9.166;2024-01-07T09:43:15;14.30;;;7.53;;
3847;SDS011;1939;48.720;9.166;2024-01-07T09:45:41;13.50;;;6.70;;
3847;SDS011;1939;48.720;9.166;2024-01-07T09:48:07;15.10;;;7.20;;
3847;SDS011;1939;48.720;9.166;2024-01-07T09:50:32;14.53;;;7.50;;
3847;SDS011;1939;48.720;9.166;2024-01-07T09:52:57;9.17;;;5.73;;
3847;SDS011;1939;48.720;9.166;2024-01-07T09:55:26;10.57;;;5.80;;
3847;SDS011;1939;48.720;9.166;2024-01-07T09:57:53;12.70;;;6.87;;
3847;SDS011;1939;48.720;9.166;2024-01-07T10:00:19;11.93;;;6.30;;
3847;SDS011;1939;48.720;9.166;2024-01-07T10:02:45;10.00;;;6.30;;
3847;SDS011;1939;48.720;9.166;2024-01-07T10:05:10;12.17;;;5.80;;
3847;SDS011;1939;48.720;9.166;2024-01-07T10:07:35;8.53;;;4.47;;
3847;SDS011;1939;48.720;9.166;2024-01-07T10:10:09;11.87;;;6.53;;
3847;SDS011;1939;48.720;9.166;2024-01-07T10:12:35;8.90;;;5.23;;
3847;SDS011;1939;48.720;9.166;2024-01-07T10:15:00;13.13;;;5.17;;
3847;SDS011;1939;48.720;9.166;2024-01-07T10:17:25;9.60;;;5.67;;
3847;SDS011;1939;48.720;9.166;2024-01-07T10:19:53;47.37;;;18.60;;
3847;SDS011;1939;48.720;9.166;2024-01-07T10:22:18;13.37;;;6.37;;
3847;SDS011;1939;48.720;9.166;2024-01-07T10:24:44;11.10;;;5.40;;
3847;SDS011;1939;48.720;9.166;2024-01-07T10:27:10;9.57;;;4.97;;
3847;SDS011;1939;48.720;9.166;2024-01-07T10:29:36;11.97;;;6.53;;
3847;SDS011;1939;48.720;9.166;2024-01-07T10:32:01;8.10;;;5.53;;
3847;SDS011;1939;48.720;9.166;2024-01-07T10:34:33;9.27;;;5.33;;
3847;SDS011;1939;48.720;9.166;2024-01-07T10:37:00;10.27;;;5.60;;
3847;SDS011;1939;48.720;9.166;2024-01-07T10:39:25;9.90;;;5.53;;
3847;SDS011;1939;48.720;9.166;2024-01-07T10:41:51;10.80;;;6.20;;
3847;SDS011;1939;48.720;9.166;2024-01-07T10:44:18;9.17;;;5.03;;
3847;SDS011;1939;48.720;9.166;2024-01-07T10:46:44;11.17;;;5.47;;
3847;SDS011;1939;48.720;9.166;2024-01-07T10:49:19;13.60;;;6.13;;
3847;SDS011;1939;48.720;9.166;2024-01-07T10:51:45;11.53;;;5.30;;
3847;SDS011;1939;48.720;9.166;2024-01-07T10:54:10;8.57;;;5.10;;
3847;SDS011;1939;48.720;9.166;2024-01-07T10:56:58;9.23;;;6.50;;
3847;SDS011;1939;48.720;9.166;2024-01-07T10:59:23;12.47;;;7.20;;
3847;SDS011;1939;48.720;9.166;2024-01-07T11:01:48;10.37;;;5.37;;
3847;SDS011;1939;48.720;9.166;2024-01-07T11:04:21;7.80;;;4.63;;
3847;SDS011;1939;48.720;9.166;2024-01-07T11:09:39;9.23;;;5.83;;
3847;SDS011;1939;48.720;9.166;2024-01-07T11:12:10;10.43;;;5.77;;
3847;SDS011;1939;48.720;9.166;2024-01-07T11:14:41;12.00;;;6.37;;
3847;SDS011;1939;48.720;9.166;2024-01-07T11:17:12;10.80;;;6.43;;
3847;SDS011;1939;48.720;9.166;2024-01-07T11:19:50;11.67;;;5.67;;
3847;SDS011;1939;48.720;9.166;2024-01-07T11:24:52;13.43;;;6.17;;
3847;SDS011;1939;48.720;9.166;2024-01-07T11:27:17;10.77;;;5.60;;
3847;SDS011;1939;48.720;9.166;2024-01-07T11:29:43;14.77;;;6.17;;
3847;SDS011;1939;48.720;9.166;2024-01-07T11:32:08;10.93;;;5.83;;
3847;SDS011;1939;48.720;9.166;2024-01-07T11:37:07;10.30;;;5.70;;
3847;SDS011;1939;48.720;9.166;2024-01-07T11:39:32;13.60;;;6.30;;
3847;SDS011;1939;48.720;9.166;2024-01-07T11:41:59;14.30;;;7.40;;
3847;SDS011;1939;48.720;9.166;2024-01-07T11:44:25;11.20;;;6.03;;
3847;SDS011;1939;48.720;9.166;2024-01-07T11:46:50;11.13;;;6.53;;
3847;SDS011;1939;48.720;9.166;2024-01-07T11:49:16;10.53;;;5.30;;
3847;SDS011;1939;48.720;9.166;2024-01-07T11:51:42;11.77;;;6.63;;
3847;SDS011;1939;48.720;9.166;2024-01-07T11:54:08;9.63;;;6.77;;
3847;SDS011;1939;48.720;9.166;2024-01-07T11:56:33;13.47;;;5.67;;
3847;SDS011;1939;48.720;9.166;2024-01-07T11:58:58;10.07;;;4.60;;
3847;SDS011;1939;48.720;9.166;2024-01-07T12:01:24;9.63;;;5.23;;
3847;SDS011;1939;48.720;9.166;2024-01-07T12:03:51;8.77;;;4.83;;
3847;SDS011;1939;48.720;9.166;2024-01-07T12:06:16;11.07;;;5.80;;
3847;SDS011;1939;48.720;9.166;2024-01-07T12:08:42;9.60;;;4.43;;
3847;SDS011;1939;48.720;9.166;2024-01-07T12:11:08;11.80;;;6.47;;
3847;SDS011;1939;48.720;9.166;2024-01-07T12:13:34;11.03;;;6.20;;
3847;SDS011;1939;48.720;9.166;2024-01-07T12:15:59;16.60;;;6.07;;
3847;SDS011;1939;48.720;9.166;2024-01-07T12:18:25;12.63;;;5.93;;
3847;SDS011;1939;48.720;9.166;2024-01-07T12:20:54;10.33;;;6.10;;
3847;SDS011;1939;48.720;9.166;2024-01-07T12:23:20;12.17;;;5.67;;
3847;SDS011;1939;48.720;9.166;2024-01-07T12:25:45;12.67;;;6.07;;
3847;SDS011;1939;48.720;9.166;2024-01-07T12:28:10;9.17;;;5.87;;
3847;SDS011;1939;48.720;9.166;2024-01-07T12:30:35;10.97;;;5.83;;
3847;SDS011;1939;48.720;9.166;2024-01-07T12:33:03;15.03;;;6.50;;
3847;SDS011;1939;48.720;9.166;2024-01-07T12:35:29;9.07;;;6.40;;
3847;SDS011;1939;48.720;9.166;2024-01-07T12:37:55;14.07;;;6.77;;
3847;SDS011;1939;48.720;9.166;2024-01-07T12:40:21;10.93;;;6.27;;
3847;SDS011;1939;48.720;9.166;2024-01-07T12:42:46;12.77;;;7.43;;
3847;SDS011;1939;48.720;9.166;2024-01-07T12:45:12;11.03;;;5.97;;
3847;SDS011;1939;48.720;9.166;2024-01-07T12:47:41;16.87;;;8.00;;
3847;SDS011;1939;48.720;9.166;2024-01-07T12:50:07;12.77;;;6.70;;
3847;SDS011;1939;48.720;9.166;2024-01-07T12:52:34;13.43;;;6.13;;
3847;SDS011;1939;48.720;9.166;2024-01-07T12:54:59;12.23;;;6.63;;
3847;SDS011;1939;48.720;9.166;2024-01-07T12:57:24;16.20;;;7.63;;
3847;SDS011;1939;48.720;9.166;2024-01-07T12:59:49;16.83;;;8.27;;
3847;SDS011;1939;48.720;9.166;2024-01-07T13:02:15;10.10;;;5.80;;
3847;SDS011;1939;48.720;9.166;2024-01-07T13:04:40;13.83;;;7.80;;
3847;SDS011;1939;48.720;9.166;2024-01-07T13:07:06;12.30;;;8.37;;
3847;SDS011;1939;48.720;9.166;2024-01-07T13:09:31;10.73;;;6.17;;
3847;SDS011;1939;48.720;9.166;2024-01-07T13:11:56;14.83;;;7.20;;
3847;SDS011;1939;48.720;9.166;2024-01-07T13:14:22;14.77;;;7.37;;
3847;SDS011;1939;48.720;9.166;2024-01-07T13:16:48;13.00;;;6.97;;
3847;SDS011;1939;48.720;9.166;2024-01-07T13:19:14;17.23;;;8.80;;
3847;SDS011;1939;48.720;9.166;2024-01-07T13:21:39;15.93;;;8.93;;
3847;SDS011;1939;48.720;9.166;2024-01-07T13:24:04;13.20;;;7.70;;
3847;SDS011;1939;48.720;9.166;2024-01-07T13:26:30;14.10;;;6.67;;
3847;SDS011;1939;48.720;9.166;2024-01-07T13:28:55;13.03;;;7.40;;
3847;SDS011;1939;48.720;9.166;2024-01-07T13:31:20;15.73;;;9.00;;
3847;SDS011;1939;48.720;9.166;2024-01-07T13:33:46;14.63;;;7.43;;
3847;SDS011;1939;48.720;9.166;2024-01-07T13:36:11;14.43;;;8.87;;
3847;SDS011;1939;48.720;9.166;2024-01-07T13:38:38;15.80;;;7.97;;
3847;SDS011;1939;48.720;9.166;2024-01-07T13:41:07;15.13;;;7.90;;
3847;SDS011;1939;48.720;9.166;2024-01-07T13:43:32;15.70;;;9.47;;
3847;SDS011;1939;48.720;9.166;2024-01-07T13:45:58;14.80;;;7.50;;
3847;SDS011;1939;48.720;9.166;2024-01-07T13:48:23;12.63;;;8.20;;
3847;SDS011;1939;48.720;9.166;2024-01-07T13:50:48;16.90;;;9.53;;
3847;SDS011;1939;48.720;9.166;2024-01-07T13:53:14;12.10;;;7.67;;
3847;SDS011;1939;48.720;9.166;2024-01-07T13:55:40;14.80;;;8.33;;
3847;SDS011;1939;48.720;9.166;2024-01-07T13:58:05;13.00;;;7.50;;
3847;SDS011;1939;48.720;9.166;2024-01-07T14:00:30;13.43;;;8.00;;
3847;SDS011;1939;48.720;9.166;2024-01-07T14:02:56;20.77;;;9.00;;
3847;SDS011;1939;48.720;9.166;2024-01-07T14:05:21;13.17;;;7.53;;
3847;SDS011;1939;48.720;9.166;2024-01-07T14:07:46;15.60;;;8.50;;
3847;SDS011;1939;48.720;9.166;2024-01-07T14:10:11;19.13;;;9.63;;
3847;SDS011;1939;48.720;9.166;2024-01-07T14:12:37;20.37;;;9.20;;
3847;SDS011;1939;48.720;9.166;2024-01-07T14:15:02;18.13;;;8.70;;
3847;SDS011;1939;48.720;9.166;2024-01-07T14:17:28;19.57;;;9.23;;
3847;SDS011;1939;48.720;9.166;2024-01-07T14:19:53;16.10;;;8.77;;
3847;SDS011;1939;48.720;9.166;2024-01-07T14:22:21;20.40;;;9.93;;
3847;SDS011;1939;48.720;9.166;2024-01-07T14:24:47;18.10;;;9.63;;
3847;SDS011;1939;48.720;9.166;2024-01-07T14:27:13;19.73;;;9.40;;
3847;SDS011;1939;48.720;9.166;2024-01-07T14:29:39;17.20;;;9.43;;
3847;SDS011;1939;48.720;9.166;2024-01-07T14:32:04;19.60;;;9.63;;
3847;SDS011;1939;48.720;9.166;2024-01-07T14:34:30;21.00;;;9.50;;
3847;SDS011;1939;48.720;9.166;2024-01-07T14:36:55;21.07;;;9.10;;
3847;SDS011;1939;48.720;9.166;2024-01-07T14:39:20;18.60;;;9.90;;
3847;SDS011;1939;48.720;9.166;2024-01-07T14:41:45;20.57;;;10.30;;
3847;SDS011;1939;48.720;9.166;2024-01-07T14:44:11;22.00;;;10.03;;
3847;SDS011;1939;48.720;9.166;2024-01-07T14:46:37;17.57;;;9.27;;
3847;SDS011;1939;48.720;9.166;2024-01-07T14:49:03;20.07;;;9.20;;
3847;SDS011;1939;48.720;9.166;2024-01-07T14:51:29;20.77;;;10.97;;
3847;SDS011;1939;48.720;9.166;2024-01-07T14:53:55;21.23;;;9.90;;
3847;SDS011;1939;48.720;9.166;2024-01-07T14:56:21;22.10;;;12.23;;